createdAt,value
2019-03-12T00:01:49.690Z,6.28
2019-03-12T00:04:18.073Z,7.45
2019-03-12T00:06:46.696Z,6.72
2019-03-12T00:09:15.338Z,7.10
2019-03-12T00:11:43.723Z,7.80
2019-03-12T00:14:12.139Z,7.03
2019-03-12T00:16:40.522Z,7.00
2019-03-12T00:19:09.160Z,6.85
2019-03-12T00:21:37.554Z,6.90
2019-03-12T00:24:06.011Z,7.00
2019-03-12T00:26:34.412Z,6.83
2019-03-12T00:29:22.208Z,7.67
2019-03-12T00:31:50.924Z,8.08
2019-03-12T00:34:19.311Z,6.92
2019-03-12T00:36:47.985Z,7.75
2019-03-12T00:39:16.637Z,7.50
2019-03-12T00:41:45.002Z,7.50
2019-03-12T00:44:13.404Z,7.58
2019-03-12T00:46:41.786Z,7.22
2019-03-12T00:49:10.498Z,7.83
2019-03-12T00:51:39.178Z,7.85
2019-03-12T00:54:07.865Z,7.10
2019-03-12T00:56:36.549Z,6.87
2019-03-12T00:59:05.012Z,7.03
2019-03-12T01:01:33.394Z,7.53
2019-03-12T01:04:02.032Z,7.28
2019-03-12T01:06:30.413Z,7.28
2019-03-12T01:08:58.810Z,7.10
2019-03-12T01:11:27.263Z,8.00
2019-03-12T01:13:55.918Z,7.67
2019-03-12T01:16:24.310Z,8.08
2019-03-12T01:18:52.695Z,7.97
2019-03-12T01:21:21.380Z,7.83
2019-03-12T01:23:49.761Z,9.10
2019-03-12T01:26:18.449Z,7.87
2019-03-12T01:28:46.904Z,7.28
2019-03-12T01:31:15.290Z,7.30
2019-03-12T01:33:43.686Z,8.38
2019-03-12T01:36:12.071Z,7.97
2019-03-12T01:38:40.457Z,7.78
2019-03-12T01:41:09.113Z,7.45
2019-03-12T01:43:37.799Z,8.40
2019-03-12T01:46:25.837Z,8.40
2019-03-12T01:48:54.523Z,8.83
2019-03-12T01:51:22.997Z,8.55
2019-03-12T01:53:51.383Z,8.38
2019-03-12T01:56:19.762Z,8.13
2019-03-12T01:58:48.166Z,8.25
2019-03-12T02:01:16.550Z,7.30
2019-03-12T02:06:20.538Z,8.30
2019-03-12T02:08:49.230Z,7.37
2019-03-12T02:11:17.866Z,7.12
2019-03-12T02:14:25.082Z,8.45
2019-03-12T02:16:53.487Z,7.60
2019-03-12T02:19:22.285Z,8.65
2019-03-12T02:21:50.816Z,8.58
2019-03-12T02:24:19.277Z,7.70
2019-03-12T02:26:47.661Z,8.33
2019-03-12T02:29:16.096Z,7.35
2019-03-12T02:31:44.491Z,7.58
2019-03-12T02:34:12.949Z,7.78
2019-03-12T02:36:41.653Z,7.70
2019-03-12T02:42:18.455Z,8.28
2019-03-12T02:44:47.064Z,8.30
2019-03-12T02:47:15.709Z,6.80
2019-03-12T02:49:44.104Z,7.75
2019-03-12T02:52:12.769Z,7.00
2019-03-12T02:54:41.170Z,7.03
2019-03-12T02:57:09.567Z,7.80
2019-03-12T02:59:37.945Z,7.30
2019-03-12T03:02:06.602Z,6.90
2019-03-12T03:04:35.259Z,7.60
2019-03-12T03:09:39.511Z,7.17
2019-03-12T03:12:07.893Z,6.45
2019-03-12T03:15:16.195Z,7.08
2019-03-12T03:17:44.891Z,8.30
2019-03-12T03:20:13.681Z,7.40
2019-03-12T03:22:42.082Z,6.75
2019-03-12T03:28:18.858Z,7.60
2019-03-12T03:30:47.574Z,7.90
2019-03-12T03:33:16.184Z,7.45
2019-03-12T03:35:44.568Z,6.35
2019-03-12T03:38:13.293Z,7.10
2019-03-12T03:40:41.684Z,7.08
2019-03-12T03:43:10.363Z,7.62
2019-03-12T03:45:39.065Z,7.70
2019-03-12T03:48:07.453Z,7.33
2019-03-12T03:50:36.119Z,7.45
2019-03-12T03:53:04.794Z,7.05
2019-03-12T03:55:33.499Z,7.78
2019-03-12T03:58:02.005Z,8.83
2019-03-12T04:00:30.591Z,7.08
2019-03-12T04:02:58.976Z,7.25
2019-03-12T04:05:27.449Z,7.25
2019-03-12T04:07:56.096Z,7.37
2019-03-12T04:10:24.501Z,7.50
2019-03-12T04:12:52.873Z,7.83
2019-03-12T04:15:21.253Z,7.60
2019-03-12T04:17:49.646Z,8.23
2019-03-12T04:20:57.984Z,7.40
2019-03-12T04:23:26.708Z,7.72
2019-03-12T04:25:55.395Z,8.00
2019-03-12T04:28:23.776Z,7.80
2019-03-12T04:30:52.471Z,8.93
2019-03-12T04:33:59.683Z,8.80
2019-03-12T04:36:28.162Z,7.67
2019-03-12T04:38:56.814Z,8.68
2019-03-12T04:41:25.218Z,8.60
2019-03-12T04:43:53.614Z,8.85
2019-03-12T04:46:21.994Z,8.63
2019-03-12T04:48:50.417Z,7.87
2019-03-12T04:51:18.789Z,8.75
2019-03-12T04:53:47.497Z,8.30
2019-03-12T04:56:15.889Z,8.35
2019-03-12T04:58:44.328Z,7.50
2019-03-12T05:01:13.047Z,9.15
2019-03-12T05:03:41.430Z,8.38
2019-03-12T05:06:10.108Z,8.63
2019-03-12T05:08:38.504Z,8.23
2019-03-12T05:11:07.125Z,8.35
2019-03-12T05:13:35.859Z,8.10
2019-03-12T05:16:04.238Z,8.40
2019-03-12T05:18:32.926Z,8.83
2019-03-12T05:21:01.607Z,8.23
2019-03-12T05:23:30.240Z,10.10
2019-03-12T05:25:58.631Z,7.60
2019-03-12T05:28:27.363Z,9.08
2019-03-12T05:30:56.045Z,9.70
2019-03-12T05:33:24.425Z,8.85
2019-03-12T05:35:53.106Z,8.23
2019-03-12T05:38:21.502Z,7.67
2019-03-12T05:40:50.125Z,8.03
2019-03-12T05:43:18.530Z,8.58
2019-03-12T05:45:47.145Z,8.75
2019-03-12T05:48:15.863Z,7.85
2019-03-12T05:50:44.235Z,7.92
2019-03-12T05:53:52.769Z,8.45
2019-03-12T05:56:21.240Z,8.83
2019-03-12T05:58:49.623Z,8.13
2019-03-12T06:01:18.008Z,6.55
2019-03-12T06:03:46.463Z,7.83
2019-03-12T06:06:15.143Z,7.33
2019-03-12T06:08:43.545Z,7.92
2019-03-12T06:11:12.207Z,7.72
2019-03-12T06:13:40.603Z,7.15
2019-03-12T06:16:09.391Z,7.15
2019-03-12T06:18:38.043Z,6.90
2019-03-12T06:21:06.496Z,7.80
2019-03-12T06:23:34.902Z,8.75
2019-03-12T06:26:03.591Z,6.53
2019-03-12T06:28:31.983Z,7.97
2019-03-12T06:31:19.500Z,7.22
2019-03-12T06:34:06.998Z,7.05
2019-03-12T06:36:54.755Z,8.20
2019-03-12T06:39:43.201Z,7.22
2019-03-12T06:42:31.728Z,6.20
2019-03-12T06:45:19.461Z,6.22
2019-03-12T06:48:07.216Z,6.15
2019-03-12T06:50:54.954Z,5.85
2019-03-12T06:53:42.476Z,7.33
2019-03-12T06:56:30.209Z,5.85
2019-03-12T06:59:17.961Z,7.70
2019-03-12T07:02:05.696Z,6.35
2019-03-12T07:07:32.611Z,7.20
2019-03-12T07:10:20.369Z,6.53
2019-03-12T07:15:57.215Z,7.53
2019-03-12T07:18:44.981Z,6.35
2019-03-12T07:21:32.494Z,7.65
2019-03-12T07:27:09.322Z,7.33
2019-03-12T07:32:45.913Z,6.30
2019-03-12T07:38:22.747Z,7.50
2019-03-12T07:41:22.872Z,6.22
2019-03-12T07:43:59.854Z,6.80
2019-03-12T07:52:35.283Z,5.65
2019-03-12T07:55:43.585Z,6.70
2019-03-12T08:01:39.171Z,5.90
2019-03-12T08:04:26.681Z,5.80
2019-03-12T08:07:14.445Z,6.28
2019-03-12T08:10:02.211Z,5.97
2019-03-12T08:15:44.465Z,5.25
2019-03-12T08:18:35.379Z,6.00
2019-03-12T08:24:13.585Z,5.65
2019-03-12T08:27:19.364Z,6.05
2019-03-12T08:33:01.571Z,5.05
2019-03-12T08:35:49.318Z,5.72
2019-03-12T08:38:37.075Z,5.15
2019-03-12T08:41:24.829Z,5.58
2019-03-12T08:44:12.563Z,6.35
2019-03-12T08:47:00.309Z,5.40
2019-03-12T08:52:37.154Z,5.30
2019-03-12T08:55:45.715Z,4.95
2019-03-12T09:03:48.063Z,4.83
2019-03-12T09:09:45.514Z,4.97
2019-03-12T09:12:45.665Z,5.12
2019-03-12T09:18:16.762Z,5.00
2019-03-12T09:21:04.507Z,4.77
2019-03-12T09:27:00.693Z,6.08
2019-03-12T09:29:48.420Z,6.20
2019-03-12T09:32:35.939Z,5.50
2019-03-12T09:41:07.310Z,5.33
2019-03-12T09:43:54.815Z,5.20
2019-03-12T09:49:31.412Z,5.23
2019-03-12T09:55:08.013Z,4.80
2019-03-12T09:58:14.823Z,5.07
2019-03-12T10:06:32.526Z,4.47
2019-03-12T10:12:09.169Z,5.10
2019-03-12T10:14:56.664Z,4.67
2019-03-12T10:17:44.406Z,3.87
2019-03-12T10:20:31.894Z,3.80
2019-03-12T10:28:34.379Z,5.37
2019-03-12T10:31:22.108Z,4.80
2019-03-12T10:40:03.495Z,4.90
2019-03-12T10:43:11.751Z,5.47
2019-03-12T10:45:59.259Z,4.27
2019-03-12T10:48:27.927Z,4.20
2019-03-12T10:50:56.598Z,4.90
2019-03-12T10:53:24.974Z,4.47
2019-03-12T10:55:53.405Z,5.10
2019-03-12T10:58:22.046Z,4.40
2019-03-12T11:00:50.731Z,4.37
2019-03-12T11:03:19.412Z,4.30
2019-03-12T11:05:48.116Z,3.70
2019-03-12T11:08:16.818Z,4.03
2019-03-12T11:11:04.767Z,4.87
2019-03-12T11:13:33.202Z,3.97
2019-03-12T11:16:01.645Z,4.30
2019-03-12T11:18:30.026Z,5.07
2019-03-12T11:20:58.997Z,4.60
2019-03-12T11:23:28.867Z,4.87
2019-03-12T11:25:57.247Z,4.40
2019-03-12T11:28:26.888Z,4.30
2019-03-12T11:30:56.277Z,3.63
2019-03-12T11:33:24.675Z,3.93
2019-03-12T11:35:53.208Z,4.00
2019-03-12T11:38:21.615Z,4.20
2019-03-12T11:41:09.380Z,4.60
2019-03-12T11:43:57.130Z,4.27
2019-03-12T11:46:25.862Z,3.40
2019-03-12T11:48:54.510Z,3.87
2019-03-12T11:51:23.145Z,3.70
2019-03-12T11:53:51.833Z,3.50
2019-03-12T11:56:20.623Z,3.13
2019-03-12T11:58:49.080Z,4.10
2019-03-12T12:01:17.870Z,3.77
2019-03-12T12:03:46.325Z,3.70
2019-03-12T12:06:15.053Z,3.90
2019-03-12T12:08:44.034Z,4.13
2019-03-12T12:11:14.147Z,4.50
2019-03-12T12:13:42.536Z,4.30
2019-03-12T12:16:11.315Z,3.67
2019-03-12T12:18:39.821Z,4.07
2019-03-12T12:21:08.481Z,3.90
2019-03-12T12:23:36.917Z,4.17
2019-03-12T12:26:05.648Z,3.80
2019-03-12T12:28:34.086Z,3.80
2019-03-12T12:31:02.816Z,4.27
2019-03-12T12:33:31.503Z,3.80
2019-03-12T12:36:00.120Z,4.03
2019-03-12T12:38:28.747Z,3.80
2019-03-12T12:40:57.126Z,3.20
2019-03-12T12:43:25.524Z,3.60
2019-03-12T12:45:54.214Z,4.47
2019-03-12T12:48:22.662Z,3.20
2019-03-12T12:51:02.413Z,3.87
2019-03-12T12:53:21.361Z,4.00
2019-03-12T12:55:50.086Z,3.80
2019-03-12T12:58:18.886Z,3.80
2019-03-12T13:00:47.338Z,4.27
2019-03-12T13:03:15.736Z,3.60
2019-03-12T13:05:44.114Z,3.33
2019-03-12T13:08:12.902Z,4.43
2019-03-12T13:10:41.586Z,3.97
2019-03-12T13:13:10.282Z,3.40
2019-03-12T13:15:38.714Z,4.20
2019-03-12T13:18:07.120Z,3.90
2019-03-12T13:20:35.506Z,3.97
2019-03-12T13:23:04.015Z,3.10
2019-03-12T13:25:32.717Z,3.53
2019-03-12T13:28:01.362Z,4.03
2019-03-12T13:31:09.902Z,4.10
2019-03-12T13:33:38.359Z,4.57
2019-03-12T13:39:01.525Z,4.73
2019-03-12T13:41:49.542Z,4.07
2019-03-12T13:44:18.035Z,4.40
2019-03-12T13:47:05.999Z,4.37
2019-03-12T13:49:34.699Z,4.53
2019-03-12T13:52:03.376Z,4.50
2019-03-12T13:54:31.993Z,4.07
2019-03-12T13:57:00.386Z,4.07
2019-03-12T13:59:28.872Z,4.93
2019-03-12T14:01:57.295Z,4.47
2019-03-12T14:04:26.049Z,4.90
2019-03-12T14:06:54.772Z,4.90
2019-03-12T14:09:23.172Z,5.70
2019-03-12T14:11:51.842Z,5.00
2019-03-12T14:14:20.232Z,5.20
2019-03-12T14:16:48.610Z,5.00
2019-03-12T14:19:17.279Z,4.57
2019-03-12T14:21:46.066Z,5.10
2019-03-12T14:24:14.447Z,4.87
2019-03-12T14:26:42.907Z,5.40
2019-03-12T14:29:11.611Z,5.00
2019-03-12T14:31:40.247Z,4.60
2019-03-12T14:34:08.626Z,4.87
2019-03-12T14:36:37.013Z,5.00
2019-03-12T14:39:45.556Z,5.83
2019-03-12T14:42:14.273Z,4.80
2019-03-12T14:44:43.055Z,5.43
2019-03-12T14:47:11.521Z,5.40
2019-03-12T14:49:39.901Z,5.80
2019-03-12T14:52:48.440Z,4.40
2019-03-12T14:55:16.874Z,4.77
2019-03-12T14:57:45.595Z,5.30
2019-03-12T15:03:36.020Z,5.10
2019-03-12T15:06:04.811Z,5.20
2019-03-12T15:08:33.194Z,5.50
2019-03-12T15:11:01.870Z,5.27
2019-03-12T15:13:30.549Z,6.20
2019-03-12T15:15:58.931Z,5.63
2019-03-12T15:18:27.334Z,5.10
2019-03-12T15:20:55.720Z,5.67
2019-03-12T15:23:24.378Z,5.07
2019-03-12T15:25:52.773Z,5.27
2019-03-12T15:28:21.444Z,5.60
2019-03-12T15:30:50.062Z,4.67
2019-03-12T15:33:18.707Z,5.60
2019-03-12T15:35:47.142Z,4.83
2019-03-12T15:38:15.531Z,5.43
2019-03-12T15:40:43.931Z,4.80
2019-03-12T15:43:12.629Z,4.83
2019-03-12T15:45:41.016Z,5.37
2019-03-12T15:48:09.422Z,5.43
2019-03-12T15:50:57.473Z,6.00
2019-03-12T15:53:25.950Z,6.00
2019-03-12T15:55:55.910Z,5.00
2019-03-12T15:58:24.488Z,5.30
2019-03-12T16:00:53.122Z,3.97
2019-03-12T16:03:21.779Z,4.80
2019-03-12T16:05:50.406Z,4.23
2019-03-12T16:08:18.808Z,5.90
2019-03-12T16:10:57.361Z,4.63
2019-03-12T16:13:17.530Z,4.77
2019-03-12T16:15:46.179Z,4.90
2019-03-12T16:18:14.854Z,5.30
2019-03-12T16:20:45.066Z,4.40
2019-03-12T16:23:53.626Z,4.70
2019-03-12T16:26:22.023Z,4.77
2019-03-12T16:28:50.739Z,5.07
2019-03-12T16:31:19.130Z,4.57
2019-03-12T16:33:47.790Z,5.13
2019-03-12T16:36:16.413Z,5.07
2019-03-12T16:38:44.813Z,4.80
2019-03-12T16:41:13.192Z,4.93
2019-03-12T16:43:41.580Z,4.90
2019-03-12T16:46:09.979Z,6.20
2019-03-12T16:48:38.770Z,5.73
2019-03-12T16:51:08.722Z,6.03
2019-03-12T16:53:37.125Z,5.23
2019-03-12T16:56:05.495Z,5.03
2019-03-12T16:58:34.147Z,4.67
2019-03-12T17:01:02.788Z,5.30
2019-03-12T17:03:31.536Z,5.70
2019-03-12T17:06:00.199Z,6.07
2019-03-12T17:08:47.994Z,6.03
2019-03-12T17:11:16.387Z,5.47
2019-03-12T17:13:44.761Z,6.00
2019-03-12T17:16:13.157Z,5.00
2019-03-12T17:18:41.540Z,5.90
2019-03-12T17:21:09.919Z,5.80
2019-03-12T17:23:38.610Z,5.63
2019-03-12T17:26:07.007Z,6.10
2019-03-12T17:28:35.381Z,5.23
2019-03-12T17:31:03.782Z,6.60
2019-03-12T17:33:32.159Z,12.63
2019-03-12T17:36:00.817Z,7.90
2019-03-12T17:38:41.657Z,6.87
2019-03-12T17:40:59.927Z,8.93
2019-03-12T17:43:28.613Z,5.77
2019-03-12T17:45:57.002Z,7.00
2019-03-12T17:48:25.383Z,6.30
2019-03-12T17:50:54.003Z,6.30
2019-03-12T17:53:22.450Z,6.60
2019-03-12T17:55:50.831Z,5.87
2019-03-12T17:58:19.206Z,5.90
2019-03-12T18:00:47.607Z,5.60
2019-03-12T18:03:15.981Z,5.67
2019-03-12T18:05:44.358Z,5.37
2019-03-12T18:08:12.750Z,6.27
2019-03-12T18:10:41.395Z,5.40
2019-03-12T18:13:09.782Z,5.53
2019-03-12T18:15:38.171Z,5.60
2019-03-12T18:18:06.833Z,4.73
2019-03-12T18:20:35.209Z,5.40
2019-03-12T18:23:03.912Z,6.53
2019-03-12T18:25:52.001Z,6.30
2019-03-12T18:28:20.395Z,6.50
2019-03-12T18:30:48.776Z,6.07
2019-03-12T18:33:17.404Z,5.77
2019-03-12T18:35:45.807Z,6.20
2019-03-12T18:38:14.251Z,6.30
2019-03-12T18:40:42.696Z,6.10
2019-03-12T18:43:14.511Z,6.00
2019-03-12T18:45:41.533Z,6.67
2019-03-12T18:48:09.911Z,6.03
2019-03-12T18:50:38.308Z,6.17
2019-03-12T18:53:06.761Z,5.77
2019-03-12T18:56:15.306Z,6.30
2019-03-12T18:58:43.685Z,5.50
2019-03-12T19:01:12.059Z,5.60
2019-03-12T19:03:40.459Z,5.50
2019-03-12T19:06:10.242Z,6.10
2019-03-12T19:08:39.178Z,5.73
2019-03-12T19:11:07.714Z,5.40
2019-03-12T19:13:36.157Z,5.10
2019-03-12T19:16:04.882Z,5.10
2019-03-12T19:18:33.754Z,5.47
2019-03-12T19:21:02.455Z,5.20
2019-03-12T19:23:31.139Z,5.50
2019-03-12T19:25:59.530Z,5.30
2019-03-12T19:28:27.974Z,5.40
2019-03-12T19:36:20.837Z,5.63
2019-03-12T19:38:49.213Z,4.30
2019-03-12T19:41:17.950Z,5.47
2019-03-12T19:43:46.355Z,5.40
2019-03-12T19:46:15.121Z,5.17
2019-03-12T19:48:43.500Z,5.17
2019-03-12T19:51:11.893Z,5.77
2019-03-12T19:53:40.561Z,4.97
2019-03-12T19:56:49.106Z,5.13
2019-03-12T19:59:57.640Z,5.57
2019-03-12T20:03:12.080Z,5.73
2019-03-12T20:05:36.754Z,6.13
2019-03-12T20:08:05.519Z,5.03
2019-03-12T20:11:12.503Z,5.50
2019-03-12T20:14:19.710Z,6.20
2019-03-12T20:17:26.937Z,5.50
2019-03-12T20:20:35.307Z,5.23
2019-03-12T20:23:42.286Z,5.10
2019-03-12T20:26:50.580Z,5.40
2019-03-12T20:29:57.569Z,5.60
2019-03-12T20:33:04.534Z,4.97
2019-03-12T20:36:11.756Z,4.90
2019-03-12T20:39:18.982Z,5.70
2019-03-12T20:42:25.972Z,5.80
2019-03-12T20:45:34.272Z,5.53
2019-03-12T20:48:41.258Z,4.70
2019-03-12T20:51:49.599Z,5.37
2019-03-12T20:54:56.817Z,4.80
2019-03-12T20:58:04.017Z,4.97
2019-03-12T21:01:11.367Z,4.93
2019-03-12T21:04:19.649Z,5.00
2019-03-12T21:07:26.633Z,5.23
2019-03-12T21:10:35.162Z,4.63
2019-03-12T21:13:43.476Z,5.63
2019-03-12T21:16:51.760Z,4.90
2019-03-12T21:19:58.976Z,4.70
2019-03-12T21:23:05.941Z,4.70
2019-03-12T21:26:12.946Z,4.63
2019-03-12T21:29:20.163Z,5.20
2019-03-12T21:31:48.808Z,4.73
2019-03-12T21:34:17.202Z,4.77
2019-03-12T21:36:45.575Z,4.73
2019-03-12T21:39:33.711Z,4.63
2019-03-12T21:42:02.497Z,4.67
2019-03-12T21:44:31.108Z,4.80
2019-03-12T21:47:01.122Z,4.97
2019-03-12T21:49:29.777Z,4.50
2019-03-12T21:51:58.469Z,6.00
2019-03-12T21:54:26.866Z,4.60
2019-03-12T21:56:55.305Z,4.70
2019-03-12T21:59:24.020Z,4.23
2019-03-12T22:01:52.496Z,5.27
2019-03-12T22:04:21.046Z,4.57
2019-03-12T22:06:49.407Z,4.80
2019-03-12T22:09:17.802Z,4.80
2019-03-12T22:11:46.267Z,5.40
2019-03-12T22:14:14.629Z,4.57
2019-03-12T22:19:18.451Z,5.07
2019-03-12T22:22:05.938Z,4.50
2019-03-12T22:24:34.326Z,5.70
2019-03-12T22:27:03.010Z,4.83
2019-03-12T22:29:31.385Z,5.20
2019-03-12T22:34:35.540Z,4.83
2019-03-12T22:37:04.157Z,5.40
2019-03-12T22:39:32.829Z,5.23
2019-03-12T22:42:01.397Z,4.83
2019-03-12T22:44:30.012Z,5.10
2019-03-12T22:46:58.699Z,5.33
2019-03-12T22:49:27.329Z,5.20
2019-03-12T22:51:55.705Z,4.57
2019-03-12T22:54:24.073Z,5.33
2019-03-12T22:56:52.469Z,5.37
2019-03-12T22:59:21.149Z,5.27
2019-03-12T23:01:49.881Z,5.93
2019-03-12T23:04:18.475Z,5.60
2019-03-12T23:06:47.107Z,5.07
2019-03-12T23:09:15.553Z,5.20
2019-03-12T23:11:43.949Z,5.50
2019-03-12T23:14:12.331Z,5.40
2019-03-12T23:16:40.714Z,4.10
2019-03-12T23:19:09.301Z,4.80
2019-03-12T23:21:38.173Z,5.20
2019-03-12T23:24:06.886Z,5.13
2019-03-12T23:26:35.570Z,4.63
2019-03-12T23:29:03.949Z,4.73
2019-03-12T23:31:32.570Z,5.20
2019-03-12T23:34:01.217Z,5.20
2019-03-12T23:36:48.948Z,5.60
2019-03-12T23:39:17.405Z,4.27
2019-03-12T23:41:45.921Z,4.43
2019-03-12T23:44:14.754Z,4.30
2019-03-12T23:46:43.387Z,4.27
2019-03-12T23:49:11.823Z,4.40
2019-03-12T23:51:40.553Z,4.20
2019-03-12T23:57:04.048Z,5.00
2019-03-12T23:59:32.424Z,4.40
